sensor_id;sensor_type;location;lat;lon;timestamp;temperature;humidity
70762;DHT22;58360;0.000;0.000;2023-05-20T00:00:28;15.40;73.20
70762;DHT22;58360;0.000;0.000;2023-05-20T00:02:53;15.60;73.30
70762;DHT22;58360;0.000;0.000;2023-05-20T00:05:19;15.60;73.30
70762;DHT22;58360;0.000;0.000;2023-05-20T00:07:45;15.50;72.70
70762;DHT22;58360;0.000;0.000;2023-05-20T00:10:11;15.30;73.40
70762;DHT22;58360;0.000;0.000;2023-05-20T00:12:37;15.40;73.20
70762;DHT22;58360;0.000;0.000;2023-05-20T00:15:04;15.40;72.80
70762;DHT22;58360;0.000;0.000;2023-05-20T00:17:30;15.40;72.80
70762;DHT22;58360;0.000;0.000;2023-05-20T00:19:56;15.40;72.50
70762;DHT22;58360;0.000;0.000;2023-05-20T00:22:21;15.30;72.70
70762;DHT22;58360;0.000;0.000;2023-05-20T00:24:47;15.40;72.70
70762;DHT22;58360;0.000;0.000;2023-05-20T00:27:13;15.20;72.50
70762;DHT22;58360;0.000;0.000;2023-05-20T00:29:39;15.00;73.10
70762;DHT22;58360;0.000;0.000;2023-05-20T00:32:05;14.90;74.40
70762;DHT22;58360;0.000;0.000;2023-05-20T00:34:30;15.00;74.20
70762;DHT22;58360;0.000;0.000;2023-05-20T00:36:56;14.80;74.60
70762;DHT22;58360;0.000;0.000;2023-05-20T00:39:23;14.90;75.10
70762;DHT22;58360;0.000;0.000;2023-05-20T00:41:48;14.90;74.60
70762;DHT22;58360;0.000;0.000;2023-05-20T00:44:14;14.90;74.80
70762;DHT22;58360;0.000;0.000;2023-05-20T00:46:40;14.90;74.60
70762;DHT22;58360;0.000;0.000;2023-05-20T00:49:05;14.80;74.50
70762;DHT22;58360;0.000;0.000;2023-05-20T00:51:33;14.80;74.70
70762;DHT22;58360;0.000;0.000;2023-05-20T00:53:59;14.80;74.00
70762;DHT22;58360;0.000;0.000;2023-05-20T00:56:25;14.90;74.00
70762;DHT22;58360;0.000;0.000;2023-05-20T00:58:51;14.90;74.00
70762;DHT22;58360;0.000;0.000;2023-05-20T01:01:17;14.80;74.50
70762;DHT22;58360;0.000;0.000;2023-05-20T01:03:43;14.60;74.70
70762;DHT22;58360;0.000;0.000;2023-05-20T01:06:08;14.40;74.60
70762;DHT22;58360;0.000;0.000;2023-05-20T01:08:34;14.40;75.30
70762;DHT22;58360;0.000;0.000;2023-05-20T01:11:33;14.50;74.90
70762;DHT22;58360;0.000;0.000;2023-05-20T01:14:05;14.40;74.80
70762;DHT22;58360;0.000;0.000;2023-05-20T01:16:32;14.50;75.60
70762;DHT22;58360;0.000;0.000;2023-05-20T01:19:01;14.40;75.10
70762;DHT22;58360;0.000;0.000;2023-05-20T01:21:30;14.40;75.30
70762;DHT22;58360;0.000;0.000;2023-05-20T01:23:56;14.30;75.10
70762;DHT22;58360;0.000;0.000;2023-05-20T01:26:22;14.30;76.00
70762;DHT22;58360;0.000;0.000;2023-05-20T01:28:51;14.50;74.60
70762;DHT22;58360;0.000;0.000;2023-05-20T01:31:20;14.40;74.60
70762;DHT22;58360;0.000;0.000;2023-05-20T01:33:52;14.40;74.60
70762;DHT22;58360;0.000;0.000;2023-05-20T01:36:20;14.20;75.10
70762;DHT22;58360;0.000;0.000;2023-05-20T01:38:48;14.20;75.40
70762;DHT22;58360;0.000;0.000;2023-05-20T01:41:14;14.10;76.20
70762;DHT22;58360;0.000;0.000;2023-05-20T01:43:40;14.20;76.40
70762;DHT22;58360;0.000;0.000;2023-05-20T01:46:06;14.10;75.70
70762;DHT22;58360;0.000;0.000;2023-05-20T01:48:32;14.10;75.90
70762;DHT22;58360;0.000;0.000;2023-05-20T01:50:57;14.00;77.20
70762;DHT22;58360;0.000;0.000;2023-05-20T01:53:23;14.00;76.90
70762;DHT22;58360;0.000;0.000;2023-05-20T01:55:49;14.10;76.40
70762;DHT22;58360;0.000;0.000;2023-05-20T01:58:14;14.00;76.40
70762;DHT22;58360;0.000;0.000;2023-05-20T02:00:40;13.80;77.00
70762;DHT22;58360;0.000;0.000;2023-05-20T02:03:06;13.80;77.10
70762;DHT22;58360;0.000;0.000;2023-05-20T02:05:31;13.90;77.30
70762;DHT22;58360;0.000;0.000;2023-05-20T02:07:57;13.90;77.20
70762;DHT22;58360;0.000;0.000;2023-05-20T02:10:23;14.00;76.90
70762;DHT22;58360;0.000;0.000;2023-05-20T02:12:48;13.90;77.00
70762;DHT22;58360;0.000;0.000;2023-05-20T02:15:14;13.90;77.40
70762;DHT22;58360;0.000;0.000;2023-05-20T02:17:40;13.80;77.60
70762;DHT22;58360;0.000;0.000;2023-05-20T02:20:08;13.80;77.70
70762;DHT22;58360;0.000;0.000;2023-05-20T02:22:35;13.70;78.30
70762;DHT22;58360;0.000;0.000;2023-05-20T02:25:01;13.60;78.60
70762;DHT22;58360;0.000;0.000;2023-05-20T02:27:27;13.80;78.10
70762;DHT22;58360;0.000;0.000;2023-05-20T02:29:53;13.70;78.10
70762;DHT22;58360;0.000;0.000;2023-05-20T02:32:18;13.80;78.30
70762;DHT22;58360;0.000;0.000;2023-05-20T02:34:45;13.70;78.50
70762;DHT22;58360;0.000;0.000;2023-05-20T02:37:11;13.60;79.00
70762;DHT22;58360;0.000;0.000;2023-05-20T02:39:37;13.70;78.90
70762;DHT22;58360;0.000;0.000;2023-05-20T02:42:02;13.70;79.00
70762;DHT22;58360;0.000;0.000;2023-05-20T02:44:29;13.70;79.10
70762;DHT22;58360;0.000;0.000;2023-05-20T02:46:54;13.70;78.90
70762;DHT22;58360;0.000;0.000;2023-05-20T02:49:20;13.70;79.20
70762;DHT22;58360;0.000;0.000;2023-05-20T02:51:46;13.70;79.20
70762;DHT22;58360;0.000;0.000;2023-05-20T02:54:11;13.70;79.20
70762;DHT22;58360;0.000;0.000;2023-05-20T02:56:37;13.70;79.00
70762;DHT22;58360;0.000;0.000;2023-05-20T02:59:03;13.70;79.50
70762;DHT22;58360;0.000;0.000;2023-05-20T03:01:29;13.70;79.60
70762;DHT22;58360;0.000;0.000;2023-05-20T03:03:55;13.70;79.80
70762;DHT22;58360;0.000;0.000;2023-05-20T03:06:20;13.70;79.80
70762;DHT22;58360;0.000;0.000;2023-05-20T03:08:50;13.60;79.90
70762;DHT22;58360;0.000;0.000;2023-05-20T03:11:15;13.50;80.20
70762;DHT22;58360;0.000;0.000;2023-05-20T03:13:41;13.50;80.40
70762;DHT22;58360;0.000;0.000;2023-05-20T03:16:06;13.60;80.50
70762;DHT22;58360;0.000;0.000;2023-05-20T03:18:32;13.50;80.80
70762;DHT22;58360;0.000;0.000;2023-05-20T03:20:58;13.50;80.70
70762;DHT22;58360;0.000;0.000;2023-05-20T03:23:23;13.50;80.70
70762;DHT22;58360;0.000;0.000;2023-05-20T03:25:49;13.60;80.70
70762;DHT22;58360;0.000;0.000;2023-05-20T03:28:15;13.40;81.00
70762;DHT22;58360;0.000;0.000;2023-05-20T03:30:43;13.40;81.40
70762;DHT22;58360;0.000;0.000;2023-05-20T03:33:09;13.40;81.00
70762;DHT22;58360;0.000;0.000;2023-05-20T03:35:36;13.20;81.60
70762;DHT22;58360;0.000;0.000;2023-05-20T03:38:02;13.30;82.10
70762;DHT22;58360;0.000;0.000;2023-05-20T03:40:29;13.30;81.80
70762;DHT22;58360;0.000;0.000;2023-05-20T03:42:54;13.30;82.10
70762;DHT22;58360;0.000;0.000;2023-05-20T03:45:20;13.20;82.50
70762;DHT22;58360;0.000;0.000;2023-05-20T03:47:46;13.30;81.70
70762;DHT22;58360;0.000;0.000;2023-05-20T03:50:11;13.20;82.40
70762;DHT22;58360;0.000;0.000;2023-05-20T03:52:37;13.20;82.20
70762;DHT22;58360;0.000;0.000;2023-05-20T03:55:05;13.30;82.30
70762;DHT22;58360;0.000;0.000;2023-05-20T03:57:31;13.20;82.50
70762;DHT22;58360;0.000;0.000;2023-05-20T03:59:57;13.10;82.80
70762;DHT22;58360;0.000;0.000;2023-05-20T04:02:24;13.10;83.00
70762;DHT22;58360;0.000;0.000;2023-05-20T04:04:49;13.20;82.70
70762;DHT22;58360;0.000;0.000;2023-05-20T04:07:18;13.20;82.50
70762;DHT22;58360;0.000;0.000;2023-05-20T04:09:44;13.20;82.60
70762;DHT22;58360;0.000;0.000;2023-05-20T04:12:09;13.20;82.50
70762;DHT22;58360;0.000;0.000;2023-05-20T04:14:35;13.10;83.10
70762;DHT22;58360;0.000;0.000;2023-05-20T04:17:05;13.20;83.10
70762;DHT22;58360;0.000;0.000;2023-05-20T04:19:31;13.30;82.80
70762;DHT22;58360;0.000;0.000;2023-05-20T04:21:56;13.40;82.40
70762;DHT22;58360;0.000;0.000;2023-05-20T04:24:22;13.30;82.80
70762;DHT22;58360;0.000;0.000;2023-05-20T04:26:50;13.40;82.90
70762;DHT22;58360;0.000;0.000;2023-05-20T04:29:16;13.50;82.50
70762;DHT22;58360;0.000;0.000;2023-05-20T04:31:44;13.40;82.60
70762;DHT22;58360;0.000;0.000;2023-05-20T04:34:10;13.30;82.90
70762;DHT22;58360;0.000;0.000;2023-05-20T04:36:36;13.40;82.80
70762;DHT22;58360;0.000;0.000;2023-05-20T04:39:04;13.40;82.60
70762;DHT22;58360;0.000;0.000;2023-05-20T04:41:30;13.30;83.20
70762;DHT22;58360;0.000;0.000;2023-05-20T04:43:56;13.30;83.70
70762;DHT22;58360;0.000;0.000;2023-05-20T04:46:24;13.30;83.20
70762;DHT22;58360;0.000;0.000;2023-05-20T04:48:50;13.50;82.80
70762;DHT22;58360;0.000;0.000;2023-05-20T04:51:15;13.70;82.20
70762;DHT22;58360;0.000;0.000;2023-05-20T04:53:42;13.70;81.80
70762;DHT22;58360;0.000;0.000;2023-05-20T04:56:09;13.70;81.70
70762;DHT22;58360;0.000;0.000;2023-05-20T04:58:36;13.70;81.80
70762;DHT22;58360;0.000;0.000;2023-05-20T05:01:02;13.70;82.20
70762;DHT22;58360;0.000;0.000;2023-05-20T05:03:28;13.70;81.80
70762;DHT22;58360;0.000;0.000;2023-05-20T05:05:57;13.60;82.20
70762;DHT22;58360;0.000;0.000;2023-05-20T05:08:24;13.70;82.40
70762;DHT22;58360;0.000;0.000;2023-05-20T05:10:53;13.90;82.10
70762;DHT22;58360;0.000;0.000;2023-05-20T05:13:18;13.90;81.90
70762;DHT22;58360;0.000;0.000;2023-05-20T05:15:44;14.00;81.70
70762;DHT22;58360;0.000;0.000;2023-05-20T05:18:10;14.20;81.00
70762;DHT22;58360;0.000;0.000;2023-05-20T05:20:35;14.30;80.40
70762;DHT22;58360;0.000;0.000;2023-05-20T05:23:03;14.50;80.20
70762;DHT22;58360;0.000;0.000;2023-05-20T05:25:29;14.50;79.90
70762;DHT22;58360;0.000;0.000;2023-05-20T05:27:55;14.60;79.80
70762;DHT22;58360;0.000;0.000;2023-05-20T05:30:20;14.50;79.90
70762;DHT22;58360;0.000;0.000;2023-05-20T05:32:46;14.60;79.50
70762;DHT22;58360;0.000;0.000;2023-05-20T05:35:13;14.60;79.40
70762;DHT22;58360;0.000;0.000;2023-05-20T05:37:39;14.70;79.90
70762;DHT22;58360;0.000;0.000;2023-05-20T05:40:06;14.70;79.60
70762;DHT22;58360;0.000;0.000;2023-05-20T05:42:32;14.80;79.30
70762;DHT22;58360;0.000;0.000;2023-05-20T05:44:58;14.80;79.20
70762;DHT22;58360;0.000;0.000;2023-05-20T05:47:25;14.90;78.60
70762;DHT22;58360;0.000;0.000;2023-05-20T05:49:57;15.00;78.30
70762;DHT22;58360;0.000;0.000;2023-05-20T05:52:25;15.10;78.20
70762;DHT22;58360;0.000;0.000;2023-05-20T05:54:50;15.30;77.10
70762;DHT22;58360;0.000;0.000;2023-05-20T05:57:16;15.20;78.20
70762;DHT22;58360;0.000;0.000;2023-05-20T05:59:42;15.20;77.70
70762;DHT22;58360;0.000;0.000;2023-05-20T06:02:07;15.30;78.30
70762;DHT22;58360;0.000;0.000;2023-05-20T06:04:35;15.20;77.80
70762;DHT22;58360;0.000;0.000;2023-05-20T06:07:00;15.30;77.60
70762;DHT22;58360;0.000;0.000;2023-05-20T06:09:26;15.20;77.40
70762;DHT22;58360;0.000;0.000;2023-05-20T06:11:52;15.20;77.80
70762;DHT22;58360;0.000;0.000;2023-05-20T06:14:17;15.40;78.00
70762;DHT22;58360;0.000;0.000;2023-05-20T06:16:44;15.40;77.60
70762;DHT22;58360;0.000;0.000;2023-05-20T06:19:10;15.60;78.30
70762;DHT22;58360;0.000;0.000;2023-05-20T06:21:36;15.60;77.20
70762;DHT22;58360;0.000;0.000;2023-05-20T06:24:01;15.70;77.20
70762;DHT22;58360;0.000;0.000;2023-05-20T06:26:27;15.70;77.00
70762;DHT22;58360;0.000;0.000;2023-05-20T06:28:53;15.90;76.70
70762;DHT22;58360;0.000;0.000;2023-05-20T06:31:18;15.90;76.20
70762;DHT22;58360;0.000;0.000;2023-05-20T06:33:44;15.80;75.70
70762;DHT22;58360;0.000;0.000;2023-05-20T06:36:10;16.20;75.60
70762;DHT22;58360;0.000;0.000;2023-05-20T06:38:36;16.70;74.60
70762;DHT22;58360;0.000;0.000;2023-05-20T06:41:02;17.50;72.30
70762;DHT22;58360;0.000;0.000;2023-05-20T06:43:28;18.20;69.80
70762;DHT22;58360;0.000;0.000;2023-05-20T06:45:53;18.70;69.00
70762;DHT22;58360;0.000;0.000;2023-05-20T06:48:19;19.50;67.10
70762;DHT22;58360;0.000;0.000;2023-05-20T06:50:45;20.20;63.60
70762;DHT22;58360;0.000;0.000;2023-05-20T06:53:10;20.70;63.50
70762;DHT22;58360;0.000;0.000;2023-05-20T06:55:37;21.20;61.10
70762;DHT22;58360;0.000;0.000;2023-05-20T06:58:02;21.60;60.50
70762;DHT22;58360;0.000;0.000;2023-05-20T07:00:28;22.00;59.50
70762;DHT22;58360;0.000;0.000;2023-05-20T07:02:54;22.20;58.60
70762;DHT22;58360;0.000;0.000;2023-05-20T07:05:19;22.80;57.50
70762;DHT22;58360;0.000;0.000;2023-05-20T07:07:45;23.20;55.90
70762;DHT22;58360;0.000;0.000;2023-05-20T07:10:10;23.40;54.50
70762;DHT22;58360;0.000;0.000;2023-05-20T07:12:36;23.50;54.50
70762;DHT22;58360;0.000;0.000;2023-05-20T07:15:02;24.10;53.10
70762;DHT22;58360;0.000;0.000;2023-05-20T07:17:27;24.50;52.80
70762;DHT22;58360;0.000;0.000;2023-05-20T07:19:54;25.20;50.80
70762;DHT22;58360;0.000;0.000;2023-05-20T07:22:20;25.60;50.10
70762;DHT22;58360;0.000;0.000;2023-05-20T07:24:46;25.60;48.80
70762;DHT22;58360;0.000;0.000;2023-05-20T07:27:12;25.50;48.90
70762;DHT22;58360;0.000;0.000;2023-05-20T07:29:37;25.90;48.00
70762;DHT22;58360;0.000;0.000;2023-05-20T07:32:03;26.50;47.50
70762;DHT22;58360;0.000;0.000;2023-05-20T07:34:32;26.80;46.80
70762;DHT22;58360;0.000;0.000;2023-05-20T07:36:57;27.30;44.60
70762;DHT22;58360;0.000;0.000;2023-05-20T07:39:23;26.80;45.50
70762;DHT22;58360;0.000;0.000;2023-05-20T07:41:49;27.20;45.50
70762;DHT22;58360;0.000;0.000;2023-05-20T07:44:15;27.40;44.20
70762;DHT22;58360;0.000;0.000;2023-05-20T07:46:43;26.70;44.80
70762;DHT22;58360;0.000;0.000;2023-05-20T07:49:09;27.30;44.60
70762;DHT22;58360;0.000;0.000;2023-05-20T07:51:35;26.50;45.10
70762;DHT22;58360;0.000;0.000;2023-05-20T07:54:01;27.40;45.00
70762;DHT22;58360;0.000;0.000;2023-05-20T07:56:28;27.70;43.90
70762;DHT22;58360;0.000;0.000;2023-05-20T07:58:55;27.30;44.70
70762;DHT22;58360;0.000;0.000;2023-05-20T08:01:22;27.90;43.90
70762;DHT22;58360;0.000;0.000;2023-05-20T08:03:48;28.30;43.00
70762;DHT22;58360;0.000;0.000;2023-05-20T08:06:14;28.10;41.80
70762;DHT22;58360;0.000;0.000;2023-05-20T08:08:40;27.60;42.20
70762;DHT22;58360;0.000;0.000;2023-05-20T08:11:06;27.70;43.30
70762;DHT22;58360;0.000;0.000;2023-05-20T08:13:32;28.30;42.20
70762;DHT22;58360;0.000;0.000;2023-05-20T08:15:58;29.00;40.80
70762;DHT22;58360;0.000;0.000;2023-05-20T08:18:23;28.70;39.60
70762;DHT22;58360;0.000;0.000;2023-05-20T08:20:49;28.30;41.00
70762;DHT22;58360;0.000;0.000;2023-05-20T08:23:15;28.70;41.20
70762;DHT22;58360;0.000;0.000;2023-05-20T08:25:41;28.70;40.60
70762;DHT22;58360;0.000;0.000;2023-05-20T08:28:07;28.70;41.00
70762;DHT22;58360;0.000;0.000;2023-05-20T08:30:32;29.50;39.50
70762;DHT22;58360;0.000;0.000;2023-05-20T08:32:59;29.00;40.00
70762;DHT22;58360;0.000;0.000;2023-05-20T08:35:25;28.80;39.50
70762;DHT22;58360;0.000;0.000;2023-05-20T08:37:51;28.50;40.30
70762;DHT22;58360;0.000;0.000;2023-05-20T08:40:20;28.80;40.60
70762;DHT22;58360;0.000;0.000;2023-05-20T08:42:48;29.40;39.40
70762;DHT22;58360;0.000;0.000;2023-05-20T08:45:18;30.20;38.40
70762;DHT22;58360;0.000;0.000;2023-05-20T08:47:44;31.00;37.00
70762;DHT22;58360;0.000;0.000;2023-05-20T08:50:11;31.10;36.90
70762;DHT22;58360;0.000;0.000;2023-05-20T08:52:47;31.60;36.20
70762;DHT22;58360;0.000;0.000;2023-05-20T08:56:02;31.40;36.80
70762;DHT22;58360;0.000;0.000;2023-05-20T08:58:03;31.50;36.40
70762;DHT22;58360;0.000;0.000;2023-05-20T09:00:29;31.00;36.60
70762;DHT22;58360;0.000;0.000;2023-05-20T09:02:58;30.30;37.10
70762;DHT22;58360;0.000;0.000;2023-05-20T09:05:25;30.50;37.70
70762;DHT22;58360;0.000;0.000;2023-05-20T09:07:51;30.50;35.80
70762;DHT22;58360;0.000;0.000;2023-05-20T09:10:18;30.60;36.70
70762;DHT22;58360;0.000;0.000;2023-05-20T09:12:44;30.60;38.00
70762;DHT22;58360;0.000;0.000;2023-05-20T09:15:11;31.30;36.50
70762;DHT22;58360;0.000;0.000;2023-05-20T09:17:37;31.30;36.60
70762;DHT22;58360;0.000;0.000;2023-05-20T09:20:09;31.30;35.80
70762;DHT22;58360;0.000;0.000;2023-05-20T09:22:37;30.90;36.60
70762;DHT22;58360;0.000;0.000;2023-05-20T09:25:03;31.50;36.00
70762;DHT22;58360;0.000;0.000;2023-05-20T09:27:29;31.90;36.10
70762;DHT22;58360;0.000;0.000;2023-05-20T09:29:55;32.50;34.90
70762;DHT22;58360;0.000;0.000;2023-05-20T09:32:21;32.30;33.70
70762;DHT22;58360;0.000;0.000;2023-05-20T09:34:52;32.30;34.80
70762;DHT22;58360;0.000;0.000;2023-05-20T09:37:20;32.10;34.30
70762;DHT22;58360;0.000;0.000;2023-05-20T09:40:02;31.70;34.60
70762;DHT22;58360;0.000;0.000;2023-05-20T09:42:41;31.80;34.30
70762;DHT22;58360;0.000;0.000;2023-05-20T09:45:07;31.40;34.80
70762;DHT22;58360;0.000;0.000;2023-05-20T09:47:38;31.30;36.20
70762;DHT22;58360;0.000;0.000;2023-05-20T09:50:06;31.90;34.00
70762;DHT22;58360;0.000;0.000;2023-05-20T09:52:36;32.50;34.20
70762;DHT22;58360;0.000;0.000;2023-05-20T09:55:03;32.90;33.30
70762;DHT22;58360;0.000;0.000;2023-05-20T09:57:36;31.70;34.20
70762;DHT22;58360;0.000;0.000;2023-05-20T10:00:05;31.80;35.30
70762;DHT22;58360;0.000;0.000;2023-05-20T10:02:34;32.90;34.40
70762;DHT22;58360;0.000;0.000;2023-05-20T10:05:03;33.50;33.10
70762;DHT22;58360;0.000;0.000;2023-05-20T10:10:36;34.10;32.80
70762;DHT22;58360;0.000;0.000;2023-05-20T10:21:19;33.90;32.90
70762;DHT22;58360;0.000;0.000;2023-05-20T10:23:49;34.10;32.80
70762;DHT22;58360;0.000;0.000;2023-05-20T10:26:15;35.10;32.70
70762;DHT22;58360;0.000;0.000;2023-05-20T10:28:42;35.10;32.10
70762;DHT22;58360;0.000;0.000;2023-05-20T10:31:16;35.10;32.00
70762;DHT22;58360;0.000;0.000;2023-05-20T10:33:43;34.40;31.60
70762;DHT22;58360;0.000;0.000;2023-05-20T10:36:10;34.50;32.60
70762;DHT22;58360;0.000;0.000;2023-05-20T10:38:56;33.60;32.60
70762;DHT22;58360;0.000;0.000;2023-05-20T10:41:27;33.40;33.30
70762;DHT22;58360;0.000;0.000;2023-05-20T10:44:05;33.00;33.30
70762;DHT22;58360;0.000;0.000;2023-05-20T10:46:32;33.20;33.70
70762;DHT22;58360;0.000;0.000;2023-05-20T10:49:01;34.30;32.30
70762;DHT22;58360;0.000;0.000;2023-05-20T10:51:28;34.00;32.60
70762;DHT22;58360;0.000;0.000;2023-05-20T10:53:56;34.80;32.70
70762;DHT22;58360;0.000;0.000;2023-05-20T10:56:23;34.10;33.30
70762;DHT22;58360;0.000;0.000;2023-05-20T10:58:51;35.30;32.00
70762;DHT22;58360;0.000;0.000;2023-05-20T11:01:17;35.40;31.60
70762;DHT22;58360;0.000;0.000;2023-05-20T11:03:48;35.70;31.80
70762;DHT22;58360;0.000;0.000;2023-05-20T11:06:15;34.40;32.10
70762;DHT22;58360;0.000;0.000;2023-05-20T11:08:42;33.90;32.30
70762;DHT22;58360;0.000;0.000;2023-05-20T11:11:09;32.90;33.70
70762;DHT22;58360;0.000;0.000;2023-05-20T11:13:35;33.40;33.70
70762;DHT22;58360;0.000;0.000;2023-05-20T11:16:01;33.30;34.10
70762;DHT22;58360;0.000;0.000;2023-05-20T11:18:29;34.20;33.40
70762;DHT22;58360;0.000;0.000;2023-05-20T11:20:58;34.70;33.10
70762;DHT22;58360;0.000;0.000;2023-05-20T11:23:28;35.40;31.50
70762;DHT22;58360;0.000;0.000;2023-05-20T11:25:55;35.40;31.30
70762;DHT22;58360;0.000;0.000;2023-05-20T11:28:22;34.80;31.70
70762;DHT22;58360;0.000;0.000;2023-05-20T11:30:49;34.40;33.30
70762;DHT22;58360;0.000;0.000;2023-05-20T11:33:16;33.80;33.00
70762;DHT22;58360;0.000;0.000;2023-05-20T11:35:46;33.90;33.60
70762;DHT22;58360;0.000;0.000;2023-05-20T11:38:12;33.80;32.90
70762;DHT22;58360;0.000;0.000;2023-05-20T11:40:45;33.70;33.60
70762;DHT22;58360;0.000;0.000;2023-05-20T11:43:14;33.60;33.90
70762;DHT22;58360;0.000;0.000;2023-05-20T11:45:44;33.90;34.30
70762;DHT22;58360;0.000;0.000;2023-05-20T11:48:10;34.40;34.00
70762;DHT22;58360;0.000;0.000;2023-05-20T11:50:43;35.00;32.20
70762;DHT22;58360;0.000;0.000;2023-05-20T11:53:14;34.60;32.30
70762;DHT22;58360;0.000;0.000;2023-05-20T11:55:54;34.10;32.90
70762;DHT22;58360;0.000;0.000;2023-05-20T11:58:25;34.40;32.90
70762;DHT22;58360;0.000;0.000;2023-05-20T12:00:51;33.90;33.80
70762;DHT22;58360;0.000;0.000;2023-05-20T12:03:17;32.90;34.50
70762;DHT22;58360;0.000;0.000;2023-05-20T12:05:43;32.90;35.00
70762;DHT22;58360;0.000;0.000;2023-05-20T12:08:09;32.50;35.30
70762;DHT22;58360;0.000;0.000;2023-05-20T12:10:35;32.80;35.60
70762;DHT22;58360;0.000;0.000;2023-05-20T12:13:04;32.30;34.90
70762;DHT22;58360;0.000;0.000;2023-05-20T12:15:34;31.60;35.10
70762;DHT22;58360;0.000;0.000;2023-05-20T12:18:00;31.80;35.80
70762;DHT22;58360;0.000;0.000;2023-05-20T12:20:26;32.90;35.20
70762;DHT22;58360;0.000;0.000;2023-05-20T12:22:52;32.60;35.00
70762;DHT22;58360;0.000;0.000;2023-05-20T12:25:18;32.60;35.10
70762;DHT22;58360;0.000;0.000;2023-05-20T12:27:45;32.00;35.80
70762;DHT22;58360;0.000;0.000;2023-05-20T12:30:17;32.50;34.80
70762;DHT22;58360;0.000;0.000;2023-05-20T12:32:43;31.60;35.90
70762;DHT22;58360;0.000;0.000;2023-05-20T12:35:10;31.50;36.80
70762;DHT22;58360;0.000;0.000;2023-05-20T12:37:38;31.60;36.40
70762;DHT22;58360;0.000;0.000;2023-05-20T12:40:06;32.00;35.90
70762;DHT22;58360;0.000;0.000;2023-05-20T12:42:39;31.80;37.30
70762;DHT22;58360;0.000;0.000;2023-05-20T12:45:06;31.90;35.60
70762;DHT22;58360;0.000;0.000;2023-05-20T12:47:32;31.50;36.50
70762;DHT22;58360;0.000;0.000;2023-05-20T12:49:59;31.00;37.30
70762;DHT22;58360;0.000;0.000;2023-05-20T12:52:25;32.10;36.40
70762;DHT22;58360;0.000;0.000;2023-05-20T12:54:55;32.00;35.60
70762;DHT22;58360;0.000;0.000;2023-05-20T12:57:22;30.90;36.30
70762;DHT22;58360;0.000;0.000;2023-05-20T12:59:48;31.20;37.50
70762;DHT22;58360;0.000;0.000;2023-05-20T13:02:14;31.70;36.50
70762;DHT22;58360;0.000;0.000;2023-05-20T13:04:40;31.10;36.60
70762;DHT22;58360;0.000;0.000;2023-05-20T13:07:06;30.70;37.10
70762;DHT22;58360;0.000;0.000;2023-05-20T13:09:31;31.30;37.50
70762;DHT22;58360;0.000;0.000;2023-05-20T13:11:59;31.90;36.60
70762;DHT22;58360;0.000;0.000;2023-05-20T13:14:25;31.90;36.40
70762;DHT22;58360;0.000;0.000;2023-05-20T13:16:51;31.70;36.50
70762;DHT22;58360;0.000;0.000;2023-05-20T13:19:21;31.60;36.30
70762;DHT22;58360;0.000;0.000;2023-05-20T13:21:48;31.70;36.10
70762;DHT22;58360;0.000;0.000;2023-05-20T13:24:14;31.50;36.90
70762;DHT22;58360;0.000;0.000;2023-05-20T13:26:41;31.00;37.00
70762;DHT22;58360;0.000;0.000;2023-05-20T13:29:06;29.60;37.30
70762;DHT22;58360;0.000;0.000;2023-05-20T13:31:32;29.70;38.20
70762;DHT22;58360;0.000;0.000;2023-05-20T13:33:58;29.20;38.50
70762;DHT22;58360;0.000;0.000;2023-05-20T13:36:26;28.70;39.70
70762;DHT22;58360;0.000;0.000;2023-05-20T13:38:52;29.20;39.70
70762;DHT22;58360;0.000;0.000;2023-05-20T13:41:20;29.80;39.10
70762;DHT22;58360;0.000;0.000;2023-05-20T13:43:47;30.60;38.20
70762;DHT22;58360;0.000;0.000;2023-05-20T13:46:12;30.90;36.80
70762;DHT22;58360;0.000;0.000;2023-05-20T13:48:38;30.60;37.60
70762;DHT22;58360;0.000;0.000;2023-05-20T13:51:04;30.50;38.30
70762;DHT22;58360;0.000;0.000;2023-05-20T13:53:30;30.60;37.60
70762;DHT22;58360;0.000;0.000;2023-05-20T13:55:57;29.80;38.00
70762;DHT22;58360;0.000;0.000;2023-05-20T13:58:23;29.30;39.30
70762;DHT22;58360;0.000;0.000;2023-05-20T14:00:48;28.80;39.10
70762;DHT22;58360;0.000;0.000;2023-05-20T14:03:14;28.10;40.60
70762;DHT22;58360;0.000;0.000;2023-05-20T14:05:41;27.90;41.40
70762;DHT22;58360;0.000;0.000;2023-05-20T14:08:07;28.20;41.80
70762;DHT22;58360;0.000;0.000;2023-05-20T14:10:32;28.40;41.50
70762;DHT22;58360;0.000;0.000;2023-05-20T14:12:59;28.70;40.20
70762;DHT22;58360;0.000;0.000;2023-05-20T14:15:26;28.40;40.30
70762;DHT22;58360;0.000;0.000;2023-05-20T14:17:56;28.70;40.90
70762;DHT22;58360;0.000;0.000;2023-05-20T14:20:25;29.30;39.10
70762;DHT22;58360;0.000;0.000;2023-05-20T14:22:52;29.00;39.40
70762;DHT22;58360;0.000;0.000;2023-05-20T14:25:19;28.70;40.30
70762;DHT22;58360;0.000;0.000;2023-05-20T14:27:45;28.20;40.10
70762;DHT22;58360;0.000;0.000;2023-05-20T14:30:12;27.70;41.00
70762;DHT22;58360;0.000;0.000;2023-05-20T14:32:39;27.50;41.00
70762;DHT22;58360;0.000;0.000;2023-05-20T14:35:05;27.20;41.40
70762;DHT22;58360;0.000;0.000;2023-05-20T14:37:31;26.80;43.30
70762;DHT22;58360;0.000;0.000;2023-05-20T14:39:56;27.00;43.50
70762;DHT22;58360;0.000;0.000;2023-05-20T14:42:22;27.00;42.10
70762;DHT22;58360;0.000;0.000;2023-05-20T14:44:48;26.40;43.00
70762;DHT22;58360;0.000;0.000;2023-05-20T14:47:13;26.20;43.40
70762;DHT22;58360;0.000;0.000;2023-05-20T14:49:44;26.10;43.20
70762;DHT22;58360;0.000;0.000;2023-05-20T14:52:10;25.80;43.60
70762;DHT22;58360;0.000;0.000;2023-05-20T14:54:36;25.80;44.90
70762;DHT22;58360;0.000;0.000;2023-05-20T14:57:01;25.90;45.00
70762;DHT22;58360;0.000;0.000;2023-05-20T14:59:28;26.10;43.10
70762;DHT22;58360;0.000;0.000;2023-05-20T15:01:54;25.80;44.80
70762;DHT22;58360;0.000;0.000;2023-05-20T15:04:20;25.70;44.70
70762;DHT22;58360;0.000;0.000;2023-05-20T15:06:45;25.80;44.50
70762;DHT22;58360;0.000;0.000;2023-05-20T15:09:11;25.60;44.70
70762;DHT22;58360;0.000;0.000;2023-05-20T15:11:37;25.60;44.80
70762;DHT22;58360;0.000;0.000;2023-05-20T15:14:03;25.60;45.00
70762;DHT22;58360;0.000;0.000;2023-05-20T15:16:28;25.30;45.20
70762;DHT22;58360;0.000;0.000;2023-05-20T15:18:54;25.20;45.80
70762;DHT22;58360;0.000;0.000;2023-05-20T15:21:21;25.10;45.00
70762;DHT22;58360;0.000;0.000;2023-05-20T15:23:46;24.80;46.20
70762;DHT22;58360;0.000;0.000;2023-05-20T15:26:12;24.70;47.60
70762;DHT22;58360;0.000;0.000;2023-05-20T15:28:38;24.70;46.70
70762;DHT22;58360;0.000;0.000;2023-05-20T15:31:04;24.80;47.00
70762;DHT22;58360;0.000;0.000;2023-05-20T15:33:30;25.20;45.60
70762;DHT22;58360;0.000;0.000;2023-05-20T15:35:56;25.80;45.50
70762;DHT22;58360;0.000;0.000;2023-05-20T15:38:21;25.90;45.40
70762;DHT22;58360;0.000;0.000;2023-05-20T15:40:47;26.20;45.10
70762;DHT22;58360;0.000;0.000;2023-05-20T15:43:15;26.10;44.30
70762;DHT22;58360;0.000;0.000;2023-05-20T15:45:41;26.20;45.10
70762;DHT22;58360;0.000;0.000;2023-05-20T15:48:07;25.80;44.80
70762;DHT22;58360;0.000;0.000;2023-05-20T15:50:35;25.80;45.50
70762;DHT22;58360;0.000;0.000;2023-05-20T15:53:01;25.90;43.90